createdAt,value
2019-04-29T00:02:17.649Z,82.26
2019-04-29T00:04:47.051Z,83.09
2019-04-29T00:07:16.455Z,83.32
2019-04-29T00:09:46.922Z,83.78
2019-04-29T00:12:17.162Z,84.41
2019-04-29T00:14:48.280Z,84.63
2019-04-29T00:17:25.479Z,84.48
2019-04-29T00:20:12.668Z,84.20
2019-04-29T00:22:42.071Z,83.60
2019-04-29T00:25:11.740Z,82.86
2019-04-29T00:27:41.472Z,82.22
2019-04-29T00:30:12.831Z,82.28
2019-04-29T00:32:42.244Z,83.48
2019-04-29T00:35:11.626Z,83.27
2019-04-29T00:37:45.655Z,83.25
2019-04-29T00:40:25.698Z,83.18
2019-04-29T00:42:59.466Z,82.76
2019-04-29T00:45:28.926Z,81.89
2019-04-29T00:47:58.336Z,81.40
2019-04-29T00:50:27.734Z,81.06
2019-04-29T00:52:57.132Z,81.21
2019-04-29T00:55:28.188Z,81.44
2019-04-29T00:57:57.601Z,82.05
2019-04-29T01:00:31.500Z,82.56
2019-04-29T01:03:00.964Z,82.85
2019-04-29T01:05:30.384Z,82.63
2019-04-29T01:07:59.770Z,82.32
2019-04-29T01:10:29.706Z,82.35
2019-04-29T01:13:00.700Z,82.73
2019-04-29T01:15:30.114Z,82.78
2019-04-29T01:17:59.680Z,82.54
2019-04-29T01:20:29.083Z,82.24
2019-04-29T01:22:58.542Z,82.28
2019-04-29T01:25:27.942Z,82.87
2019-04-29T01:28:02.074Z,82.86
2019-04-29T01:30:52.772Z,82.66
2019-04-29T01:33:22.620Z,82.91
2019-04-29T01:35:53.648Z,83.10
2019-04-29T01:38:23.060Z,83.21
2019-04-29T01:40:57.031Z,82.88
2019-04-29T01:43:28.080Z,82.38
2019-04-29T01:45:57.473Z,82.24
2019-04-29T01:48:26.875Z,83.08
2019-04-29T01:50:56.261Z,83.28
2019-04-29T01:53:25.683Z,83.84
2019-04-29T01:55:55.072Z,83.46
2019-04-29T01:58:24.480Z,83.10
2019-04-29T02:00:53.969Z,83.02
2019-04-29T02:03:23.392Z,82.65
2019-04-29T02:05:52.779Z,82.24
2019-04-29T02:08:22.208Z,82.59
2019-04-29T02:10:52.276Z,83.61
2019-04-29T02:13:23.359Z,84.23
2019-04-29T02:15:52.763Z,85.17
2019-04-29T02:18:22.183Z,85.61
2019-04-29T02:20:51.579Z,85.48
2019-04-29T02:23:22.643Z,84.74
2019-04-29T02:25:52.097Z,84.40
2019-04-29T02:28:21.514Z,84.50
2019-04-29T02:30:52.858Z,84.74
2019-04-29T02:33:22.253Z,84.51
2019-04-29T02:35:51.663Z,84.61
2019-04-29T02:38:34.729Z,85.54
2019-04-29T02:41:05.778Z,85.63
2019-04-29T02:43:42.808Z,85.93
2019-04-29T02:46:12.410Z,86.17
2019-04-29T02:48:41.819Z,85.85
2019-04-29T02:51:12.860Z,85.35
2019-04-29T02:53:42.292Z,84.96
2019-04-29T02:56:11.683Z,84.47
2019-04-29T02:58:42.740Z,84.31
2019-04-29T03:01:16.947Z,84.04
2019-04-29T03:04:00.060Z,83.98
2019-04-29T03:06:29.467Z,83.87
2019-04-29T03:08:58.938Z,84.12
2019-04-29T03:11:28.428Z,84.16
2019-04-29T03:13:57.804Z,84.17
2019-04-29T03:16:27.374Z,84.34
2019-04-29T03:18:59.070Z,84.34
2019-04-29T03:21:33.118Z,84.08
2019-04-29T03:24:02.566Z,83.78
2019-04-29T03:26:31.918Z,83.63
2019-04-29T03:29:01.345Z,83.83
2019-04-29T03:31:30.811Z,84.09
2019-04-29T03:34:00.208Z,84.17
2019-04-29T03:36:29.626Z,84.68
2019-04-29T03:38:59.046Z,86.01
2019-04-29T03:41:28.425Z,86.36
2019-04-29T03:43:57.934Z,86.74
2019-04-29T03:46:27.336Z,86.86
2019-04-29T03:48:56.738Z,86.61
2019-04-29T03:51:26.147Z,86.57
2019-04-29T03:53:55.542Z,86.64
2019-04-29T03:56:24.977Z,86.19
2019-04-29T03:58:54.453Z,86.11
2019-04-29T04:01:34.258Z,86.19
2019-04-29T04:04:05.302Z,86.43
2019-04-29T04:06:36.331Z,86.14
2019-04-29T04:11:51.413Z,85.36
2019-04-29T04:14:20.850Z,85.43
2019-04-29T04:17:06.905Z,85.22
2019-04-29T04:19:36.314Z,85.37
2019-04-29T04:22:05.707Z,85.13
2019-04-29T04:24:35.166Z,85.27
2019-04-29T04:27:04.639Z,85.15
2019-04-29T04:29:34.170Z,85.59
2019-04-29T04:32:03.568Z,86.01
2019-04-29T04:34:32.974Z,86.42
2019-04-29T04:37:02.377Z,86.36
2019-04-29T04:39:33.437Z,85.81
2019-04-29T04:42:02.827Z,85.61
2019-04-29T04:44:39.557Z,86.02
2019-04-29T04:47:08.962Z,86.10
2019-04-29T04:49:38.420Z,86.14
2019-04-29T04:52:07.836Z,86.04
2019-04-29T04:54:37.316Z,85.84
2019-04-29T04:57:06.739Z,85.89
2019-04-29T04:59:36.147Z,85.45
2019-04-29T05:02:05.559Z,85.38
2019-04-29T05:04:34.950Z,85.36
2019-04-29T05:07:04.467Z,85.19
2019-04-29T05:09:33.942Z,85.76
2019-04-29T05:12:03.426Z,85.43
2019-04-29T05:14:34.432Z,85.77
2019-04-29T05:17:03.838Z,85.65
2019-04-29T05:19:33.250Z,84.75
2019-04-29T05:22:02.654Z,84.22
2019-04-29T05:24:32.060Z,84.16
2019-04-29T05:27:01.441Z,84.64
2019-04-29T05:29:30.929Z,83.82
2019-04-29T05:32:00.396Z,83.81
2019-04-29T05:34:31.441Z,83.11
2019-04-29T05:37:18.507Z,82.45
2019-04-29T05:39:47.928Z,81.34
2019-04-29T05:42:17.412Z,81.73
2019-04-29T05:44:51.412Z,81.65
2019-04-29T05:47:38.660Z,81.61
2019-04-29T05:50:26.647Z,81.68
2019-04-29T05:52:57.690Z,81.77
2019-04-29T05:55:27.120Z,79.90
2019-04-29T05:58:03.032Z,79.95
2019-04-29T06:00:29.270Z,79.04
2019-04-29T06:02:58.768Z,79.38
2019-04-29T06:05:28.289Z,79.95
2019-04-29T06:08:01.189Z,79.94
2019-04-29T06:10:28.787Z,80.19
2019-04-29T06:12:58.173Z,80.05
2019-04-29T06:15:27.579Z,79.20
2019-04-29T06:17:56.971Z,79.07
2019-04-29T06:20:26.461Z,78.61
2019-04-29T06:22:55.857Z,78.89
2019-04-29T06:27:50.909Z,78.79
2019-04-29T06:30:20.355Z,79.07
2019-04-29T06:32:49.738Z,79.24
2019-04-29T06:35:19.226Z,78.92
2019-04-29T06:37:48.619Z,79.39
2019-04-29T06:40:18.031Z,79.18
2019-04-29T06:42:49.466Z,78.97
2019-04-29T06:45:18.707Z,78.09
2019-04-29T06:47:48.114Z,77.44
2019-04-29T06:50:17.963Z,76.20
2019-04-29T06:52:47.419Z,76.35
2019-04-29T06:55:17.003Z,75.40
2019-04-29T06:57:46.393Z,74.84
2019-04-29T07:00:17.571Z,73.79
2019-04-29T07:02:49.861Z,74.14
2019-04-29T07:05:18.101Z,73.67
2019-04-29T07:07:47.498Z,74.65
2019-04-29T07:10:21.790Z,73.27
2019-04-29T07:12:48.501Z,72.78
2019-04-29T07:15:19.586Z,73.67
2019-04-29T07:17:49.024Z,72.02
2019-04-29T07:20:18.435Z,72.79
2019-04-29T07:22:47.821Z,72.39
2019-04-29T07:25:17.234Z,71.30
2019-04-29T07:27:46.628Z,70.76
2019-04-29T07:30:16.360Z,69.82
2019-04-29T07:32:46.975Z,68.20
2019-04-29T07:35:17.009Z,68.45
2019-04-29T07:37:46.388Z,67.38
2019-04-29T07:40:17.618Z,67.81
2019-04-29T07:42:47.143Z,66.90
2019-04-29T07:45:23.893Z,68.20
2019-04-29T07:47:56.543Z,67.87
2019-04-29T07:50:26.839Z,68.20
2019-04-29T07:52:56.247Z,67.61
2019-04-29T07:55:30.211Z,67.04
2019-04-29T07:57:57.022Z,66.78
2019-04-29T08:00:34.477Z,65.81
2019-04-29T08:03:07.133Z,65.70
2019-04-29T08:05:36.791Z,67.22
2019-04-29T08:08:06.481Z,66.87
2019-04-29T08:10:35.978Z,66.71
2019-04-29T08:13:08.033Z,66.79
2019-04-29T08:15:41.559Z,67.03
2019-04-29T08:18:11.432Z,65.95
2019-04-29T08:20:41.526Z,65.32
2019-04-29T08:23:10.941Z,64.96
2019-04-29T08:25:40.377Z,62.43
2019-04-29T08:28:10.606Z,61.80
2019-04-29T08:30:41.899Z,59.51
2019-04-29T08:33:12.001Z,58.50
2019-04-29T08:35:42.447Z,54.88
2019-04-29T08:38:11.883Z,54.52
2019-04-29T08:40:45.232Z,55.14
2019-04-29T08:43:15.841Z,53.26
2019-04-29T08:46:02.205Z,48.22
2019-04-29T08:48:31.617Z,42.39
2019-04-29T08:51:01.033Z,38.93
2019-04-29T08:53:30.511Z,39.52
2019-04-29T08:55:59.934Z,39.19
2019-04-29T08:58:29.327Z,36.79
2019-04-29T09:00:58.751Z,32.98
2019-04-29T09:03:39.691Z,32.64
2019-04-29T09:06:05.389Z,32.69
2019-04-29T09:08:32.985Z,32.21
2019-04-29T09:11:01.581Z,30.50
2019-04-29T09:13:32.149Z,30.30
2019-04-29T09:16:03.183Z,29.72
2019-04-29T09:18:32.625Z,30.45
2019-04-29T09:21:02.205Z,31.74
2019-04-29T09:23:33.250Z,30.25
2019-04-29T09:26:06.970Z,30.86
2019-04-29T09:28:36.364Z,29.34
2019-04-29T09:31:05.930Z,24.60
2019-04-29T09:33:35.406Z,24.72
2019-04-29T09:36:04.887Z,25.01
2019-04-29T09:38:36.865Z,22.42
2019-04-29T09:41:07.118Z,23.64
2019-04-29T09:43:38.150Z,22.23
2019-04-29T09:46:18.463Z,21.29
2019-04-29T09:48:46.370Z,20.15
2019-04-29T09:51:17.637Z,19.96
2019-04-29T09:53:46.886Z,19.40
2019-04-29T09:56:16.377Z,20.48
2019-04-29T09:58:45.790Z,19.41
2019-04-29T10:01:18.931Z,19.06
2019-04-29T10:03:52.473Z,21.51
2019-04-29T10:06:23.533Z,19.33
2019-04-29T10:08:52.931Z,18.25
2019-04-29T10:11:22.398Z,17.42
2019-04-29T10:13:54.523Z,19.47
2019-04-29T10:16:27.310Z,19.08
2019-04-29T10:19:00.732Z,16.92
2019-04-29T10:21:29.561Z,15.27
2019-04-29T10:23:59.055Z,14.74
2019-04-29T10:26:28.519Z,15.40
2019-04-29T10:28:59.578Z,15.35
2019-04-29T10:31:29.043Z,14.98
2019-04-29T10:33:58.456Z,14.97
2019-04-29T10:36:28.025Z,15.60
2019-04-29T10:38:59.074Z,16.62
2019-04-29T10:41:30.512Z,15.94
2019-04-29T10:44:07.393Z,17.05
2019-04-29T10:46:54.701Z,18.05
2019-04-29T10:49:25.769Z,17.05
2019-04-29T10:51:57.958Z,16.63
2019-04-29T10:54:28.616Z,15.39
2019-04-29T10:56:58.249Z,13.76
2019-04-29T10:59:36.121Z,14.46
2019-04-29T11:02:15.775Z,13.86
2019-04-29T11:04:46.621Z,15.51
2019-04-29T11:07:27.677Z,16.57
2019-04-29T11:09:59.039Z,15.34
2019-04-29T11:12:28.521Z,16.95
2019-04-29T11:15:01.205Z,18.06
2019-04-29T11:17:29.376Z,17.19
2019-04-29T11:19:58.861Z,17.82
2019-04-29T11:22:33.868Z,18.51
2019-04-29T11:25:13.435Z,18.71
2019-04-29T11:27:56.562Z,19.22
2019-04-29T11:30:30.291Z,20.28
2019-04-29T11:33:16.278Z,19.44
2019-04-29T11:36:05.441Z,21.23
2019-04-29T11:38:38.398Z,20.96
2019-04-29T11:41:06.125Z,20.23
2019-04-29T11:43:35.711Z,20.28
2019-04-29T11:46:05.452Z,19.69
2019-04-29T11:48:34.976Z,21.08
2019-04-29T11:51:22.292Z,20.09
2019-04-29T11:53:51.785Z,20.87
2019-04-29T11:56:21.356Z,22.92
2019-04-29T11:58:58.408Z,22.90
2019-04-29T12:01:39.223Z,22.27
2019-04-29T12:04:28.555Z,20.59
2019-04-29T12:06:58.268Z,20.71
2019-04-29T12:09:30.345Z,21.86
2019-04-29T12:11:58.787Z,22.07
2019-04-29T12:14:33.836Z,20.47
2019-04-29T12:17:09.152Z,21.98
2019-04-29T12:19:43.188Z,20.88
2019-04-29T12:22:26.948Z,19.53
2019-04-29T12:24:43.717Z,20.08
2019-04-29T12:27:14.805Z,22.21
2019-04-29T12:29:44.494Z,23.81
2019-04-29T12:32:25.125Z,22.27
2019-04-29T12:34:59.957Z,24.11
2019-04-29T12:37:37.348Z,25.21
2019-04-29T12:40:14.469Z,23.42
2019-04-29T12:42:55.174Z,23.41
2019-04-29T12:45:42.435Z,24.58
2019-04-29T12:48:23.925Z,26.34
2019-04-29T12:50:43.274Z,26.97
2019-04-29T12:53:12.665Z,27.06
2019-04-29T12:55:50.290Z,27.98
2019-04-29T12:58:19.301Z,28.20
2019-04-29T13:00:56.376Z,28.11
2019-04-29T13:03:41.086Z,29.12
2019-04-29T13:06:23.498Z,29.81
2019-04-29T13:08:56.309Z,30.45
2019-04-29T13:11:36.144Z,30.23
2019-04-29T13:14:01.766Z,28.25
2019-04-29T13:16:34.123Z,28.68
2019-04-29T13:19:12.286Z,30.56
2019-04-29T13:21:39.634Z,29.27
2019-04-29T13:24:18.177Z,28.78
2019-04-29T13:26:42.890Z,30.19
2019-04-29T13:29:25.882Z,29.58
2019-04-29T13:31:42.633Z,28.79
2019-04-29T13:34:23.516Z,29.52
2019-04-29T13:36:44.797Z,30.82
2019-04-29T13:39:14.656Z,29.97
2019-04-29T13:41:57.236Z,29.79
2019-04-29T13:44:19.396Z,30.54
2019-04-29T13:46:51.066Z,29.96
2019-04-29T13:49:23.716Z,27.80
2019-04-29T13:51:54.740Z,29.14
2019-04-29T13:54:24.152Z,31.17
2019-04-29T13:56:56.689Z,31.16
2019-04-29T13:59:26.365Z,31.39
2019-04-29T14:02:05.602Z,30.12
2019-04-29T14:04:32.994Z,30.18
2019-04-29T14:07:02.458Z,30.08
2019-04-29T14:09:35.033Z,30.63
2019-04-29T14:12:46.047Z,31.15
2019-04-29T14:14:34.072Z,29.78
2019-04-29T14:17:24.091Z,30.91
2019-04-29T14:19:40.942Z,32.73
2019-04-29T14:22:06.280Z,30.59
2019-04-29T14:24:35.778Z,30.52
2019-04-29T14:27:05.728Z,31.50
2019-04-29T14:29:35.132Z,29.20
2019-04-29T14:32:04.758Z,28.92
2019-04-29T14:34:38.463Z,30.52
2019-04-29T14:37:21.341Z,29.73
2019-04-29T14:39:38.990Z,30.21
2019-04-29T14:42:30.161Z,28.62
2019-04-29T14:44:58.970Z,28.37
2019-04-29T14:47:30.019Z,29.11
2019-04-29T14:50:10.595Z,29.23
2019-04-29T14:52:38.218Z,30.24
2019-04-29T14:55:07.799Z,29.91
2019-04-29T14:57:37.215Z,29.55
2019-04-29T15:00:10.198Z,29.71
2019-04-29T15:02:39.629Z,31.22
2019-04-29T15:05:12.274Z,30.78
2019-04-29T15:07:40.292Z,31.80
2019-04-29T15:10:14.177Z,32.22
2019-04-29T15:13:01.927Z,32.55
2019-04-29T15:15:34.207Z,32.21
2019-04-29T15:18:15.842Z,32.37
2019-04-29T15:20:50.924Z,32.57
2019-04-29T15:23:28.337Z,33.31
2019-04-29T15:25:51.437Z,33.42
2019-04-29T15:28:20.851Z,33.56
2019-04-29T15:30:50.261Z,33.54
2019-04-29T15:33:19.661Z,33.53
2019-04-29T15:35:49.069Z,33.33
2019-04-29T15:38:18.484Z,33.90
2019-04-29T15:40:47.989Z,32.53
2019-04-29T15:43:22.029Z,33.72
2019-04-29T15:45:48.512Z,33.81
2019-04-29T15:48:17.927Z,32.23
2019-04-29T15:50:47.323Z,33.94
2019-04-29T15:53:16.813Z,34.33
2019-04-29T15:55:46.214Z,34.37
2019-04-29T15:58:15.707Z,34.63
2019-04-29T16:00:45.180Z,35.07
2019-04-29T16:03:17.901Z,34.95
2019-04-29T16:06:11.236Z,34.84
2019-04-29T16:08:41.184Z,35.75
2019-04-29T16:11:29.438Z,35.56
2019-04-29T16:14:09.025Z,36.16
2019-04-29T16:16:34.028Z,36.88
2019-04-29T16:19:08.373Z,37.05
2019-04-29T16:21:39.493Z,37.22
2019-04-29T16:24:24.973Z,37.89
2019-04-29T16:26:37.708Z,38.35
2019-04-29T16:29:12.272Z,39.08
2019-04-29T16:31:38.262Z,38.68
2019-04-29T16:34:07.685Z,38.86
2019-04-29T16:36:37.067Z,38.76
2019-04-29T16:39:06.832Z,38.68
2019-04-29T16:41:37.864Z,39.85
2019-04-29T16:44:33.723Z,38.26
2019-04-29T16:46:40.449Z,38.80
2019-04-29T16:49:10.038Z,39.37
2019-04-29T16:51:39.514Z,39.19
2019-04-29T16:54:12.874Z,39.98
2019-04-29T16:56:40.021Z,39.98
2019-04-29T16:59:09.720Z,40.22
2019-04-29T17:01:39.178Z,40.24
2019-04-29T17:04:08.583Z,40.75
2019-04-29T17:06:41.517Z,40.08
2019-04-29T17:09:13.200Z,39.58
2019-04-29T17:11:44.333Z,40.26
2019-04-29T17:14:13.897Z,40.33
2019-04-29T17:16:43.356Z,41.38
2019-04-29T17:19:13.299Z,41.61
2019-04-29T17:21:42.712Z,42.00
2019-04-29T17:24:12.246Z,42.27
2019-04-29T17:26:43.297Z,42.82
2019-04-29T17:29:37.958Z,42.80
2019-04-29T17:32:03.393Z,41.32
2019-04-29T17:34:57.958Z,39.93
2019-04-29T17:37:06.410Z,40.17
2019-04-29T17:39:35.812Z,40.41
2019-04-29T17:42:05.216Z,41.38
2019-04-29T17:44:42.024Z,42.87
2019-04-29T17:47:25.207Z,42.41
2019-04-29T17:50:06.208Z,42.81
2019-04-29T17:52:35.129Z,43.09
2019-04-29T17:55:11.980Z,43.65
2019-04-29T17:57:48.464Z,46.12
2019-04-29T18:00:20.299Z,49.38
2019-04-29T18:03:03.121Z,50.81
2019-04-29T18:05:52.162Z,53.42
2019-04-29T18:08:19.192Z,54.70
2019-04-29T18:10:50.243Z,58.69
2019-04-29T18:13:24.011Z,59.86
2019-04-29T18:16:00.896Z,58.45
2019-04-29T18:18:26.370Z,58.26
2019-04-29T18:21:12.386Z,59.40
2019-04-29T18:23:51.543Z,58.70
2019-04-29T18:26:37.900Z,57.96
2019-04-29T18:29:08.129Z,58.73
2019-04-29T18:31:37.568Z,57.54
2019-04-29T18:34:07.050Z,57.78
2019-04-29T18:36:36.441Z,59.30
2019-04-29T18:39:09.039Z,60.76
2019-04-29T18:41:38.447Z,61.13
2019-04-29T18:44:07.928Z,62.27
2019-04-29T18:46:37.432Z,61.36
2019-04-29T18:49:07.224Z,63.76
2019-04-29T18:51:36.804Z,63.15
2019-04-29T18:54:06.310Z,60.99
2019-04-29T18:56:36.350Z,59.74
2019-04-29T18:59:06.926Z,62.39
2019-04-29T19:01:36.322Z,62.11
2019-04-29T19:04:18.955Z,64.03
2019-04-29T19:06:51.194Z,63.79
2019-04-29T19:09:20.847Z,64.58
2019-04-29T19:11:52.989Z,64.72
2019-04-29T19:14:25.585Z,62.62
2019-04-29T19:17:00.149Z,59.36
2019-04-29T19:19:25.333Z,60.35
2019-04-29T19:21:55.885Z,63.98
2019-04-29T19:24:27.497Z,62.05
2019-04-29T19:27:00.620Z,60.85
2019-04-29T19:29:27.659Z,63.48
2019-04-29T19:31:57.046Z,64.87
2019-04-29T19:34:26.569Z,66.01
2019-04-29T19:36:59.357Z,67.86
2019-04-29T19:39:27.277Z,69.09
2019-04-29T19:41:56.694Z,69.40
2019-04-29T19:44:33.115Z,70.20
2019-04-29T19:46:59.162Z,71.13
2019-04-29T19:49:28.501Z,71.92
2019-04-29T19:51:58.079Z,71.14
2019-04-29T19:54:28.631Z,69.64
2019-04-29T19:57:03.539Z,69.16
2019-04-29T19:59:29.801Z,69.32
2019-04-29T20:02:05.339Z,69.12
2019-04-29T20:04:32.775Z,68.91
2019-04-29T20:07:07.306Z,68.78
2019-04-29T20:09:36.328Z,69.61
2019-04-29T20:12:12.867Z,70.73
2019-04-29T20:14:37.275Z,70.91
2019-04-29T20:17:14.085Z,70.79
2019-04-29T20:19:58.828Z,71.37
2019-04-29T20:22:24.352Z,71.24
2019-04-29T20:24:55.724Z,70.68
2019-04-29T20:27:26.161Z,70.62
2019-04-29T20:29:56.194Z,70.78
2019-04-29T20:32:27.749Z,70.97
2019-04-29T20:35:06.703Z,71.11
2019-04-29T20:37:28.381Z,71.63
2019-04-29T20:40:00.798Z,71.81
2019-04-29T20:42:29.222Z,72.06
2019-04-29T20:44:58.794Z,72.15
2019-04-29T20:47:37.609Z,72.34
2019-04-29T20:49:59.788Z,71.66
2019-04-29T20:52:31.153Z,71.78
2019-04-29T20:55:02.666Z,72.24
2019-04-29T20:57:31.942Z,72.84
2019-04-29T21:00:01.858Z,73.16
2019-04-29T21:02:35.366Z,73.25
2019-04-29T21:05:02.621Z,73.29
2019-04-29T21:07:32.166Z,73.03
2019-04-29T21:10:05.901Z,73.23
2019-04-29T21:12:38.417Z,73.15
2019-04-29T21:15:19.125Z,73.46
2019-04-29T21:17:48.768Z,73.63
2019-04-29T21:20:18.190Z,73.61
2019-04-29T21:22:47.611Z,72.98
2019-04-29T21:25:17.025Z,72.64
2019-04-29T21:27:48.488Z,72.10
2019-04-29T21:30:18.528Z,72.49
2019-04-29T21:32:47.932Z,72.91
2019-04-29T21:35:21.888Z,73.60
2019-04-29T21:38:09.242Z,73.99
2019-04-29T21:40:40.306Z,73.71
2019-04-29T21:43:17.595Z,74.08
2019-04-29T21:45:48.343Z,74.07
2019-04-29T21:48:37.388Z,73.72
2019-04-29T21:51:11.077Z,73.75
2019-04-29T21:53:40.243Z,73.64
2019-04-29T21:56:09.651Z,73.41
2019-04-29T21:58:39.073Z,72.61
2019-04-29T22:01:09.359Z,73.32
2019-04-29T22:03:38.749Z,72.70
2019-04-29T22:06:08.179Z,72.58
2019-04-29T22:08:37.657Z,72.13
2019-04-29T22:11:07.175Z,72.39
2019-04-29T22:13:39.087Z,72.80
2019-04-29T22:16:11.551Z,73.19
2019-04-29T22:18:39.225Z,73.41
2019-04-29T22:21:10.090Z,72.89
2019-04-29T22:23:44.370Z,73.28
2019-04-29T22:26:10.841Z,72.96
2019-04-29T22:28:40.236Z,73.62
2019-04-29T22:31:09.664Z,73.42
2019-04-29T22:33:39.075Z,73.52
2019-04-29T22:36:10.171Z,73.47
2019-04-29T22:38:43.700Z,72.64
2019-04-29T22:41:18.745Z,73.11
2019-04-29T22:43:47.921Z,73.09
2019-04-29T22:46:17.556Z,72.89
2019-04-29T22:48:48.688Z,72.94
2019-04-29T22:51:19.037Z,73.05
2019-04-29T22:53:48.583Z,73.18
2019-04-29T22:56:17.999Z,73.68
2019-04-29T22:58:47.580Z,73.75
2019-04-29T23:01:17.745Z,73.44
2019-04-29T23:03:47.325Z,73.11
2019-04-29T23:06:16.700Z,73.96
2019-04-29T23:08:46.168Z,73.76
2019-04-29T23:11:15.648Z,73.57
2019-04-29T23:13:46.166Z,73.29
2019-04-29T23:16:16.178Z,73.65
2019-04-29T23:18:50.513Z,73.91
2019-04-29T23:21:23.130Z,73.92
2019-04-29T23:24:13.227Z,73.93
2019-04-29T23:26:42.572Z,73.67
2019-04-29T23:29:12.072Z,72.84
2019-04-29T23:31:41.464Z,72.71
2019-04-29T23:34:10.878Z,72.96
2019-04-29T23:36:40.276Z,72.17
2019-04-29T23:39:09.695Z,72.25
2019-04-29T23:41:39.088Z,71.97
2019-04-29T23:44:08.958Z,71.34
2019-04-29T23:46:38.401Z,71.30
2019-04-29T23:49:07.829Z,72.05
2019-04-29T23:51:37.726Z,72.35
2019-04-29T23:54:08.019Z,73.24
2019-04-29T23:56:56.496Z,73.06
2019-04-29T23:59:27.629Z,73.10
